createdAt,value
2022-08-20T00:01:15.713Z,9.97
2022-08-20T00:03:44.747Z,10.75
2022-08-20T00:06:23.410Z,10.90
2022-08-20T00:08:51.108Z,11.18
2022-08-20T00:11:25.357Z,11.50
2022-08-20T00:13:57.906Z,12.90
2022-08-20T00:16:32.232Z,14.15
2022-08-20T00:19:01.452Z,13.68
2022-08-20T00:21:28.667Z,12.45
2022-08-20T00:23:58.981Z,12.02
2022-08-20T00:26:26.308Z,12.32
2022-08-20T00:28:54.025Z,11.88
2022-08-20T00:31:23.718Z,9.13
2022-08-20T00:33:52.262Z,8.20
2022-08-20T00:36:19.700Z,9.93
2022-08-20T00:38:47.095Z,9.07
2022-08-20T00:41:22.904Z,8.43
2022-08-20T00:44:18.281Z,8.43
2022-08-20T00:46:46.470Z,9.07
2022-08-20T00:49:25.280Z,9.57
2022-08-20T00:52:08.576Z,10.02
2022-08-20T00:54:49.300Z,8.77
2022-08-20T00:57:28.819Z,10.57
2022-08-20T01:00:28.741Z,10.23
2022-08-20T01:02:57.556Z,10.27
2022-08-20T01:05:29.450Z,12.52
2022-08-20T01:07:57.848Z,10.63
2022-08-20T01:10:31.432Z,11.07
2022-08-20T01:12:59.787Z,12.00
2022-08-20T01:18:01.209Z,10.77
2022-08-20T01:20:37.416Z,12.63
2022-08-20T01:23:29.780Z,12.18
2022-08-20T01:26:13.947Z,10.85
2022-08-20T01:28:52.276Z,10.48
2022-08-20T01:31:24.668Z,10.95
2022-08-20T01:33:55.195Z,10.60
2022-08-20T01:36:31.278Z,10.40
2022-08-20T01:39:00.259Z,10.13
2022-08-20T01:41:52.864Z,11.32
2022-08-20T01:44:21.582Z,10.52
2022-08-20T01:46:52.149Z,9.80
2022-08-20T01:49:31.917Z,10.43
2022-08-20T01:52:02.182Z,10.85
2022-08-20T01:54:31.699Z,10.82
2022-08-20T01:57:11.513Z,9.60
2022-08-20T01:59:39.968Z,11.48
2022-08-20T02:02:08.903Z,13.68
2022-08-20T02:04:36.800Z,13.40
2022-08-20T02:07:07.603Z,11.77
2022-08-20T02:09:38.839Z,10.07
2022-08-20T02:12:08.615Z,10.02
2022-08-20T02:14:43.310Z,10.90
2022-08-20T02:17:12.253Z,11.85
2022-08-20T02:19:50.750Z,10.90
2022-08-20T02:22:40.893Z,9.63
2022-08-20T02:25:18.382Z,9.77
2022-08-20T02:27:48.255Z,8.55
2022-08-20T02:30:27.755Z,8.68
2022-08-20T02:32:57.796Z,10.80
2022-08-20T02:35:26.500Z,10.13
2022-08-20T02:40:31.271Z,9.65
2022-08-20T02:43:00.945Z,9.63
2022-08-20T02:45:30.842Z,11.93
2022-08-20T02:47:58.571Z,15.50
2022-08-20T02:50:27.076Z,14.73
2022-08-20T02:52:54.446Z,14.77
2022-08-20T02:55:27.951Z,16.77
2022-08-20T02:57:59.338Z,18.95
2022-08-20T03:00:30.551Z,18.40
2022-08-20T03:03:10.313Z,17.92
2022-08-20T03:05:41.459Z,19.17
2022-08-20T03:08:11.419Z,16.95
2022-08-20T03:10:41.521Z,16.60
2022-08-20T03:13:12.225Z,16.90
2022-08-20T03:15:43.209Z,16.75
2022-08-20T03:18:10.522Z,16.15
2022-08-20T03:20:38.505Z,15.95
2022-08-20T03:23:07.144Z,17.92
2022-08-20T03:25:34.341Z,16.83
2022-08-20T03:28:01.713Z,16.42
2022-08-20T03:30:30.790Z,16.02
2022-08-20T03:32:58.520Z,14.95
2022-08-20T03:35:28.550Z,16.40
2022-08-20T03:37:55.926Z,18.67
2022-08-20T03:40:33.561Z,14.77
2022-08-20T03:43:01.283Z,18.67
2022-08-20T03:45:29.461Z,20.38
2022-08-20T03:47:57.330Z,19.70
2022-08-20T03:50:29.503Z,17.50
2022-08-20T03:52:58.867Z,19.83
2022-08-20T03:55:30.001Z,19.10
2022-08-20T03:58:05.541Z,23.33
2022-08-20T04:00:46.485Z,20.40
2022-08-20T04:03:14.947Z,19.95
2022-08-20T04:08:20.208Z,19.85
2022-08-20T04:10:50.219Z,18.83
2022-08-20T04:13:19.984Z,18.17
2022-08-20T04:15:54.544Z,16.85
2022-08-20T04:18:25.043Z,17.98
2022-08-20T04:20:53.759Z,14.27
2022-08-20T04:23:22.173Z,14.52
2022-08-20T04:25:49.324Z,14.40
2022-08-20T04:28:24.699Z,15.07
2022-08-20T04:30:52.391Z,12.02
2022-08-20T04:33:22.718Z,9.97
2022-08-20T04:36:04.878Z,9.73
2022-08-20T04:38:48.468Z,8.20
2022-08-20T04:41:22.621Z,9.13
2022-08-20T04:43:55.870Z,9.00
2022-08-20T04:46:27.794Z,9.30
2022-08-20T04:48:57.012Z,8.02
2022-08-20T04:51:24.851Z,8.98
2022-08-20T04:53:54.314Z,8.27
2022-08-20T04:56:27.617Z,8.25
2022-08-20T04:58:58.459Z,8.80
2022-08-20T05:01:26.975Z,8.80
2022-08-20T05:03:55.410Z,10.98
2022-08-20T05:06:28.122Z,14.13
2022-08-20T05:08:58.155Z,9.70
2022-08-20T05:11:33.110Z,9.00
2022-08-20T05:14:08.153Z,10.02
2022-08-20T05:16:38.001Z,8.90
2022-08-20T05:19:08.324Z,10.02
2022-08-20T05:21:36.594Z,10.02
2022-08-20T05:24:05.126Z,8.32
2022-08-20T05:26:32.928Z,8.52
2022-08-20T05:29:00.159Z,6.72
2022-08-20T05:31:31.360Z,6.72
2022-08-20T05:34:02.960Z,6.38
2022-08-20T05:36:30.252Z,6.50
2022-08-20T05:38:57.502Z,6.20
2022-08-20T05:41:28.869Z,6.28
2022-08-20T05:44:00.566Z,5.97
2022-08-20T05:46:30.537Z,7.40
2022-08-20T05:48:59.615Z,7.00
2022-08-20T05:51:29.233Z,6.47
2022-08-20T05:53:57.968Z,7.25
2022-08-20T05:56:29.559Z,7.97
2022-08-20T05:58:57.210Z,7.30
2022-08-20T06:01:24.376Z,7.07
2022-08-20T06:04:10.325Z,7.53
2022-08-20T06:06:44.172Z,11.57
2022-08-20T06:09:16.473Z,7.75
2022-08-20T06:11:55.620Z,7.22
2022-08-20T06:14:26.649Z,7.10
2022-08-20T06:16:57.978Z,7.78
2022-08-20T06:19:27.007Z,7.45
2022-08-20T06:21:55.852Z,6.72
2022-08-20T06:24:24.267Z,6.47
2022-08-20T06:27:00.721Z,6.10
2022-08-20T06:29:29.127Z,6.17
2022-08-20T06:31:56.745Z,7.00
2022-08-20T06:34:27.498Z,6.38
2022-08-20T06:36:56.554Z,8.02
2022-08-20T06:39:26.272Z,6.60
2022-08-20T06:41:55.602Z,7.07
2022-08-20T06:44:23.666Z,7.22
2022-08-20T06:46:50.709Z,6.53
2022-08-20T06:49:17.976Z,5.90
2022-08-20T06:51:45.079Z,6.60
2022-08-20T06:54:17.144Z,7.00
2022-08-20T06:56:44.284Z,6.78
2022-08-20T06:59:11.386Z,5.30
2022-08-20T07:01:38.636Z,4.60
2022-08-20T07:04:07.709Z,4.57
2022-08-20T07:06:34.752Z,4.85
2022-08-20T07:09:02.066Z,4.90
2022-08-20T07:11:29.323Z,4.50
2022-08-20T07:16:25.072Z,4.43
2022-08-20T07:18:52.584Z,4.22
2022-08-20T07:21:19.955Z,5.30
2022-08-20T07:23:48.284Z,4.25
2022-08-20T07:26:15.907Z,4.63
2022-08-20T07:28:42.977Z,4.32
2022-08-20T07:31:28.928Z,4.82
2022-08-20T07:33:59.889Z,4.72
2022-08-20T07:36:27.564Z,4.47
2022-08-20T07:38:54.991Z,4.13
2022-08-20T07:41:24.205Z,4.32
2022-08-20T07:43:51.355Z,4.13
2022-08-20T07:46:21.020Z,4.20
2022-08-20T07:48:49.570Z,4.22
2022-08-20T07:51:19.480Z,4.70
2022-08-20T07:53:48.343Z,4.55
2022-08-20T07:56:19.341Z,5.05
2022-08-20T07:58:51.865Z,5.50
2022-08-20T08:01:29.103Z,5.35
2022-08-20T08:03:57.838Z,4.50
2022-08-20T08:06:29.215Z,4.80
2022-08-20T08:09:12.515Z,3.75
2022-08-20T08:11:47.462Z,4.30
2022-08-20T08:14:26.053Z,4.70
2022-08-20T08:16:59.245Z,4.82
2022-08-20T08:19:33.656Z,4.32
2022-08-20T08:22:00.849Z,4.18
2022-08-20T08:24:28.674Z,6.40
2022-08-20T08:29:22.887Z,4.83
2022-08-20T08:31:50.027Z,4.63
2022-08-20T08:34:17.183Z,4.87
2022-08-20T08:36:44.835Z,5.07
2022-08-20T08:39:12.093Z,4.03
2022-08-20T08:41:49.273Z,5.13
2022-08-20T08:44:33.585Z,5.30
2022-08-20T08:47:17.699Z,4.88
2022-08-20T08:49:46.749Z,5.50
2022-08-20T08:52:22.966Z,5.25
2022-08-20T08:55:06.063Z,4.75
2022-08-20T08:57:33.666Z,4.95
2022-08-20T09:00:12.772Z,4.93
2022-08-20T09:02:52.688Z,5.40
2022-08-20T09:05:23.107Z,5.38
2022-08-20T09:07:53.137Z,5.55
2022-08-20T09:10:23.318Z,5.05
2022-08-20T09:12:52.022Z,4.70
2022-08-20T09:15:20.676Z,4.68
2022-08-20T09:17:48.177Z,5.38
2022-08-20T09:20:15.386Z,4.55
2022-08-20T09:22:42.470Z,4.83
2022-08-20T09:25:10.150Z,4.97
2022-08-20T09:27:37.269Z,4.97
2022-08-20T09:30:07.900Z,4.60
2022-08-20T09:32:35.085Z,5.05
2022-08-20T09:35:06.658Z,4.55
2022-08-20T09:37:37.682Z,5.10
2022-08-20T09:40:08.189Z,4.68
2022-08-20T09:42:41.336Z,3.90
2022-08-20T09:45:20.451Z,4.45
2022-08-20T09:47:56.972Z,4.15
2022-08-20T09:50:33.287Z,4.83
2022-08-20T09:53:03.357Z,5.40
2022-08-20T09:55:45.904Z,5.60
2022-08-20T09:58:34.643Z,5.38
2022-08-20T10:01:15.909Z,4.38
2022-08-20T10:03:44.385Z,4.60
2022-08-20T10:06:14.064Z,4.90
2022-08-20T10:08:41.275Z,5.03
2022-08-20T10:11:08.419Z,5.13
2022-08-20T10:13:35.857Z,5.40
2022-08-20T10:16:03.592Z,5.18
2022-08-20T10:18:31.041Z,4.45
2022-08-20T10:20:58.275Z,5.10
2022-08-20T10:23:25.403Z,4.57
2022-08-20T10:25:52.528Z,5.53
2022-08-20T10:28:19.807Z,5.20
2022-08-20T10:30:47.223Z,4.85
2022-08-20T10:33:14.440Z,4.63
2022-08-20T10:35:41.647Z,4.40
2022-08-20T10:38:08.820Z,5.07
2022-08-20T10:40:36.061Z,4.60
2022-08-20T10:43:03.527Z,4.90
2022-08-20T10:45:30.944Z,6.90
2022-08-20T10:48:01.363Z,5.20
2022-08-20T10:50:30.267Z,5.53
2022-08-20T10:52:58.349Z,5.47
2022-08-20T10:55:25.646Z,5.60
2022-08-20T10:57:52.894Z,5.93
2022-08-20T11:00:20.171Z,5.63
2022-08-20T11:02:47.430Z,4.75
2022-08-20T11:05:14.541Z,5.40
2022-08-20T11:07:55.183Z,6.10
2022-08-20T11:10:29.571Z,5.28
2022-08-20T11:12:56.913Z,5.18
2022-08-20T11:15:24.355Z,4.68
2022-08-20T11:17:52.250Z,5.70
2022-08-20T11:20:24.401Z,6.32
2022-08-20T11:22:55.213Z,5.13
2022-08-20T11:25:25.428Z,5.20
2022-08-20T11:27:54.990Z,5.03
2022-08-20T11:30:27.430Z,5.80
2022-08-20T11:32:55.509Z,5.10
2022-08-20T11:38:10.735Z,5.55
2022-08-20T11:40:38.069Z,5.20
2022-08-20T11:43:20.540Z,5.73
2022-08-20T11:45:53.953Z,5.20
2022-08-20T11:48:21.708Z,5.30
2022-08-20T11:50:50.302Z,5.07
2022-08-20T11:53:17.639Z,5.43
2022-08-20T11:55:45.055Z,4.70
2022-08-20T12:00:39.937Z,5.03
2022-08-20T12:03:08.928Z,5.17
2022-08-20T12:05:39.057Z,5.70
2022-08-20T12:08:07.773Z,5.70
2022-08-20T12:10:35.443Z,5.05
2022-08-20T12:13:04.588Z,4.22
2022-08-20T12:15:34.647Z,4.50
2022-08-20T12:18:09.174Z,4.88
2022-08-20T12:20:37.784Z,4.95
2022-08-20T12:23:05.142Z,4.90
2022-08-20T12:25:32.868Z,4.47
2022-08-20T12:28:00.647Z,4.68
2022-08-20T12:30:27.965Z,4.50
2022-08-20T12:32:55.086Z,5.35
2022-08-20T12:35:22.487Z,5.20
2022-08-20T12:37:50.131Z,4.50
2022-08-20T12:40:30.769Z,5.30
2022-08-20T12:43:02.604Z,6.30
2022-08-20T12:45:31.058Z,5.03
2022-08-20T12:48:09.345Z,4.95
2022-08-20T12:50:40.188Z,4.63
2022-08-20T12:53:08.068Z,4.60
2022-08-20T12:55:35.801Z,5.35
2022-08-20T12:58:08.725Z,4.10
2022-08-20T13:00:43.815Z,4.55
2022-08-20T13:03:12.390Z,4.95
2022-08-20T13:05:40.285Z,5.18
2022-08-20T13:10:44.939Z,4.78
2022-08-20T13:13:17.592Z,4.78
2022-08-20T13:15:50.258Z,5.72
2022-08-20T13:18:18.460Z,4.72
2022-08-20T13:20:45.959Z,4.72
2022-08-20T13:23:13.289Z,5.95
2022-08-20T13:25:40.520Z,4.70
2022-08-20T13:28:07.636Z,4.43
2022-08-20T13:30:38.028Z,5.03
2022-08-20T13:33:05.306Z,5.15
2022-08-20T13:35:32.790Z,5.82
2022-08-20T13:37:59.987Z,4.70
2022-08-20T13:40:27.188Z,4.80
2022-08-20T13:42:54.675Z,5.80
2022-08-20T13:45:21.862Z,4.72
2022-08-20T13:47:54.034Z,5.23
2022-08-20T13:50:23.750Z,4.25
2022-08-20T13:52:51.449Z,5.05
2022-08-20T13:55:21.542Z,5.53
2022-08-20T13:57:50.217Z,4.30
2022-08-20T14:00:32.081Z,4.75
2022-08-20T14:03:05.137Z,5.32
2022-08-20T14:05:33.819Z,4.75
2022-08-20T14:08:22.087Z,5.30
2022-08-20T14:10:51.364Z,5.38
2022-08-20T14:13:22.779Z,4.80
2022-08-20T14:15:50.436Z,4.82
2022-08-20T14:18:18.281Z,4.75
2022-08-20T14:20:46.005Z,4.25
2022-08-20T14:23:14.721Z,4.72
2022-08-20T14:25:46.060Z,3.92
2022-08-20T14:28:18.526Z,4.20
2022-08-20T14:30:53.327Z,4.68
2022-08-20T14:33:23.218Z,4.72
2022-08-20T14:35:51.601Z,4.50
2022-08-20T14:38:19.009Z,4.40
2022-08-20T14:40:46.762Z,4.55
2022-08-20T14:43:14.256Z,5.13
2022-08-20T14:45:41.317Z,4.75
2022-08-20T14:48:11.525Z,4.47
2022-08-20T14:50:38.742Z,4.35
2022-08-20T14:53:06.548Z,4.60
2022-08-20T14:55:37.320Z,4.32
2022-08-20T14:58:10.615Z,4.03
2022-08-20T15:00:38.839Z,4.53
2022-08-20T15:03:06.020Z,4.13
2022-08-20T15:05:34.886Z,4.60
2022-08-20T15:08:08.295Z,4.88
2022-08-20T15:10:39.090Z,4.85
2022-08-20T15:13:07.666Z,4.40
2022-08-20T15:15:34.868Z,4.00
2022-08-20T15:18:02.858Z,4.25
2022-08-20T15:22:59.749Z,5.22
2022-08-20T15:28:00.827Z,4.32
2022-08-20T15:30:30.562Z,4.97
2022-08-20T15:32:57.944Z,4.47
2022-08-20T15:35:28.183Z,4.82
2022-08-20T15:37:58.049Z,4.68
2022-08-20T15:40:30.192Z,4.47
2022-08-20T15:42:59.414Z,3.85
2022-08-20T15:45:27.152Z,5.10
2022-08-20T15:48:16.510Z,3.97
2022-08-20T15:51:13.708Z,5.28
2022-08-20T15:53:59.861Z,4.50
2022-08-20T15:57:01.253Z,5.22
2022-08-20T15:59:49.428Z,4.60
2022-08-20T16:02:25.657Z,4.10
2022-08-20T16:05:17.205Z,4.43
2022-08-20T16:08:20.482Z,4.65
2022-08-20T16:10:58.860Z,4.00
2022-08-20T16:13:54.645Z,4.45
2022-08-20T16:16:40.920Z,3.97
2022-08-20T16:19:25.780Z,3.92
2022-08-20T16:21:55.641Z,4.07
2022-08-20T16:24:23.278Z,4.20
2022-08-20T16:27:21.178Z,3.63
2022-08-20T16:30:07.761Z,4.57
2022-08-20T16:32:46.851Z,4.40
2022-08-20T16:35:36.937Z,4.75
2022-08-20T16:38:28.028Z,4.28
2022-08-20T16:41:01.604Z,4.90
2022-08-20T16:43:39.105Z,3.50
2022-08-20T16:46:19.437Z,4.22
2022-08-20T16:48:58.646Z,4.13
2022-08-20T16:51:46.160Z,3.38
2022-08-20T16:54:19.177Z,4.50
2022-08-20T16:57:05.234Z,3.50
2022-08-20T16:59:33.582Z,4.15
2022-08-20T17:02:07.286Z,4.25
2022-08-20T17:04:50.551Z,3.85
2022-08-20T17:08:07.085Z,3.83
2022-08-20T17:10:58.712Z,4.43
2022-08-20T17:13:32.547Z,4.60
2022-08-20T17:16:22.646Z,5.07
2022-08-20T17:18:53.065Z,4.60
2022-08-20T17:21:22.853Z,4.18
2022-08-20T17:24:00.702Z,4.35
2022-08-20T17:29:25.786Z,4.35
2022-08-20T17:32:22.158Z,5.15
2022-08-20T17:34:54.224Z,3.95
2022-08-20T17:37:32.751Z,4.20
2022-08-20T17:40:46.513Z,4.03
2022-08-20T17:43:30.074Z,4.30
2022-08-20T17:46:02.458Z,4.78
2022-08-20T17:48:40.746Z,4.05
2022-08-20T17:51:36.426Z,3.85
2022-08-20T17:54:33.717Z,3.22
2022-08-20T17:57:11.327Z,4.32
2022-08-20T18:00:02.383Z,4.18
2022-08-20T18:02:33.507Z,4.05
2022-08-20T18:05:01.164Z,4.93
2022-08-20T18:07:57.929Z,4.93
2022-08-20T18:10:26.787Z,9.13
2022-08-20T18:13:51.467Z,8.07
2022-08-20T18:16:49.750Z,8.20
2022-08-20T18:20:06.249Z,9.15
2022-08-20T18:22:58.958Z,8.73
2022-08-20T18:25:41.890Z,7.93
2022-08-20T18:28:28.024Z,7.20
2022-08-20T18:31:01.448Z,7.88
2022-08-20T18:33:41.596Z,7.93
2022-08-20T18:36:29.725Z,8.05
2022-08-20T18:39:06.977Z,8.13
2022-08-20T18:41:41.104Z,7.67
2022-08-20T18:44:28.434Z,7.40
2022-08-20T18:47:02.435Z,6.80
2022-08-20T18:49:40.907Z,7.15
2022-08-20T18:52:23.104Z,6.93
2022-08-20T18:55:02.327Z,7.82
2022-08-20T18:57:41.416Z,6.57
2022-08-20T19:00:15.963Z,6.20
2022-08-20T19:03:02.853Z,6.68
2022-08-20T19:05:45.129Z,7.45
2022-08-20T19:08:18.885Z,6.97
2022-08-20T19:11:33.576Z,7.47
2022-08-20T19:14:28.574Z,8.80
2022-08-20T19:17:54.031Z,8.25
2022-08-20T19:20:26.747Z,7.15
2022-08-20T19:23:19.075Z,6.75
2022-08-20T19:26:02.269Z,7.10
2022-08-20T19:28:48.129Z,7.10
2022-08-20T19:31:23.778Z,7.25
2022-08-20T19:34:19.002Z,7.93
2022-08-20T19:37:28.132Z,7.10
2022-08-20T19:39:50.303Z,7.80
2022-08-20T19:42:30.745Z,6.80
2022-08-20T19:45:06.992Z,6.95
2022-08-20T19:48:05.092Z,7.78
2022-08-20T19:51:00.080Z,7.40
2022-08-20T19:53:34.171Z,7.80
2022-08-20T19:56:15.480Z,7.07
2022-08-20T19:58:44.462Z,8.40
2022-08-20T20:01:21.406Z,7.40
2022-08-20T20:04:05.105Z,7.45
2022-08-20T20:06:41.123Z,7.93
2022-08-20T20:09:27.584Z,7.55
2022-08-20T20:12:01.998Z,8.38
2022-08-20T20:14:35.889Z,7.85
2022-08-20T20:17:09.227Z,7.32
2022-08-20T20:19:58.541Z,8.70
2022-08-20T20:22:30.511Z,7.95
2022-08-20T20:25:41.127Z,8.05
2022-08-20T20:28:28.242Z,8.13
2022-08-20T20:31:11.513Z,8.33
2022-08-20T20:33:44.124Z,10.00
2022-08-20T20:36:17.711Z,8.93
2022-08-20T20:39:04.104Z,8.32
2022-08-20T20:41:32.157Z,9.23
2022-08-20T20:44:05.537Z,8.52
2022-08-20T20:46:35.262Z,9.13
2022-08-20T20:49:08.645Z,11.02
2022-08-20T20:51:42.088Z,11.00
2022-08-20T20:54:41.495Z,13.57
2022-08-20T20:57:34.269Z,10.77
2022-08-20T21:00:13.593Z,9.63
2022-08-20T21:02:41.452Z,10.15
2022-08-20T21:05:10.487Z,8.43
2022-08-20T21:07:50.566Z,9.23
2022-08-20T21:10:22.697Z,9.50
2022-08-20T21:12:52.984Z,7.80
2022-08-20T21:15:23.614Z,7.25
2022-08-20T21:17:50.929Z,7.63
2022-08-20T21:20:20.121Z,6.57
2022-08-20T21:22:47.323Z,6.78
2022-08-20T21:25:14.562Z,6.13
2022-08-20T21:27:47.452Z,6.40
2022-08-20T21:30:16.192Z,7.50
2022-08-20T21:32:43.256Z,8.02
2022-08-20T21:35:11.655Z,7.75
2022-08-20T21:40:08.664Z,7.18
2022-08-20T21:42:38.576Z,7.13
2022-08-20T21:45:10.763Z,8.15
2022-08-20T21:47:37.946Z,8.40
2022-08-20T21:50:07.377Z,8.32
2022-08-20T21:52:35.463Z,8.40
2022-08-20T21:55:03.946Z,9.43
2022-08-20T22:00:02.767Z,8.77
2022-08-20T22:02:32.027Z,8.52
2022-08-20T22:04:59.171Z,7.97
2022-08-20T22:07:26.345Z,8.10
2022-08-20T22:09:53.468Z,7.07
2022-08-20T22:12:23.969Z,7.35
2022-08-20T22:14:52.074Z,8.45
2022-08-20T22:17:19.442Z,7.57
2022-08-20T22:19:46.645Z,7.63
2022-08-20T22:22:14.980Z,8.10
2022-08-20T22:27:09.862Z,7.93
2022-08-20T22:29:36.984Z,10.15
2022-08-20T22:32:04.581Z,7.47
2022-08-20T22:34:34.514Z,7.63
2022-08-20T22:37:03.298Z,8.30
2022-08-20T22:39:30.496Z,7.32
2022-08-20T22:41:57.813Z,6.95
2022-08-20T22:44:24.926Z,6.93
2022-08-20T22:46:55.872Z,7.78
2022-08-20T22:49:29.952Z,7.25
2022-08-20T22:51:57.383Z,7.57
2022-08-20T22:54:24.956Z,9.82
2022-08-20T22:56:53.935Z,7.43
2022-08-20T22:59:22.117Z,7.10
2022-08-20T23:01:51.609Z,7.38
2022-08-20T23:04:32.090Z,6.88
2022-08-20T23:07:01.224Z,7.13
2022-08-20T23:09:30.288Z,5.85
2022-08-20T23:11:57.764Z,5.35
2022-08-20T23:14:27.400Z,5.85
2022-08-20T23:17:13.460Z,9.73
2022-08-20T23:19:42.134Z,6.95
2022-08-20T23:22:09.771Z,5.82
2022-08-20T23:24:37.883Z,6.32
2022-08-20T23:27:07.144Z,5.10
2022-08-20T23:29:35.039Z,5.35
2022-08-20T23:32:02.558Z,4.35
2022-08-20T23:34:29.868Z,4.53
2022-08-20T23:36:59.054Z,4.78
2022-08-20T23:39:27.640Z,4.88
2022-08-20T23:41:55.172Z,5.47
2022-08-20T23:44:26.655Z,4.70
2022-08-20T23:47:02.107Z,5.30
2022-08-20T23:49:31.045Z,5.32
2022-08-20T23:51:59.976Z,5.03
2022-08-20T23:54:29.835Z,5.72
2022-08-20T23:56:57.236Z,5.68
2022-08-20T23:59:25.603Z,5.93
